sensor_id;sensor_type;location;lat;lon;timestamp;temperature;humidity
37702;DHT22;23548;51.196;6.838;2024-02-23T00:01:47;7.00;99.90
37702;DHT22;23548;51.196;6.838;2024-02-23T00:04:13;7.00;99.90
37702;DHT22;23548;51.196;6.838;2024-02-23T00:06:40;6.90;99.90
37702;DHT22;23548;51.196;6.838;2024-02-23T00:09:05;6.80;99.90
37702;DHT22;23548;51.196;6.838;2024-02-23T00:11:31;6.80;99.90
37702;DHT22;23548;51.196;6.838;2024-02-23T00:13:59;6.80;99.90
37702;DHT22;23548;51.196;6.838;2024-02-23T00:16:25;6.70;99.90
37702;DHT22;23548;51.196;6.838;2024-02-23T00:18:52;6.60;99.90
37702;DHT22;23548;51.196;6.838;2024-02-23T00:21:18;6.60;99.90
37702;DHT22;23548;51.196;6.838;2024-02-23T00:23:43;6.50;99.90
37702;DHT22;23548;51.196;6.838;2024-02-23T00:26:09;6.50;99.90
37702;DHT22;23548;51.196;6.838;2024-02-23T00:28:35;6.40;99.90
37702;DHT22;23548;51.196;6.838;2024-02-23T00:31:01;6.50;99.90
37702;DHT22;23548;51.196;6.838;2024-02-23T00:33:26;6.50;99.90
37702;DHT22;23548;51.196;6.838;2024-02-23T00:35:52;6.40;99.90
37702;DHT22;23548;51.196;6.838;2024-02-23T00:38:18;6.40;99.90
37702;DHT22;23548;51.196;6.838;2024-02-23T00:40:44;6.40;99.90
37702;DHT22;23548;51.196;6.838;2024-02-23T00:43:10;6.40;99.90
37702;DHT22;23548;51.196;6.838;2024-02-23T00:45:36;6.20;99.90
37702;DHT22;23548;51.196;6.838;2024-02-23T00:48:02;6.20;99.90
37702;DHT22;23548;51.196;6.838;2024-02-23T00:50:28;6.20;99.90
37702;DHT22;23548;51.196;6.838;2024-02-23T00:52:54;6.20;99.90
37702;DHT22;23548;51.196;6.838;2024-02-23T00:55:20;6.10;99.90
37702;DHT22;23548;51.196;6.838;2024-02-23T00:57:46;6.00;99.90
37702;DHT22;23548;51.196;6.838;2024-02-23T01:00:12;6.00;99.90
37702;DHT22;23548;51.196;6.838;2024-02-23T01:02:38;6.00;99.90
37702;DHT22;23548;51.196;6.838;2024-02-23T01:05:06;5.90;99.90
37702;DHT22;23548;51.196;6.838;2024-02-23T01:07:31;5.90;99.90
37702;DHT22;23548;51.196;6.838;2024-02-23T01:09:57;5.80;99.90
37702;DHT22;23548;51.196;6.838;2024-02-23T01:12:24;5.80;99.90
37702;DHT22;23548;51.196;6.838;2024-02-23T01:14:49;5.80;99.90
37702;DHT22;23548;51.196;6.838;2024-02-23T01:17:15;5.90;99.90
37702;DHT22;23548;51.196;6.838;2024-02-23T01:19:42;6.00;99.90
37702;DHT22;23548;51.196;6.838;2024-02-23T01:22:08;6.20;99.90
37702;DHT22;23548;51.196;6.838;2024-02-23T01:24:34;6.30;99.90
37702;DHT22;23548;51.196;6.838;2024-02-23T01:27:00;6.30;99.90
37702;DHT22;23548;51.196;6.838;2024-02-23T01:29:26;6.30;99.90
37702;DHT22;23548;51.196;6.838;2024-02-23T01:31:52;6.40;99.90
37702;DHT22;23548;51.196;6.838;2024-02-23T01:34:20;6.50;99.90
37702;DHT22;23548;51.196;6.838;2024-02-23T01:36:47;6.60;99.90
37702;DHT22;23548;51.196;6.838;2024-02-23T01:39:12;6.60;99.90
37702;DHT22;23548;51.196;6.838;2024-02-23T01:41:38;6.50;99.90
37702;DHT22;23548;51.196;6.838;2024-02-23T01:44:04;6.50;99.90
37702;DHT22;23548;51.196;6.838;2024-02-23T01:46:30;6.40;99.90
37702;DHT22;23548;51.196;6.838;2024-02-23T01:48:57;6.40;99.90
37702;DHT22;23548;51.196;6.838;2024-02-23T01:51:24;6.20;99.90
37702;DHT22;23548;51.196;6.838;2024-02-23T01:53:50;6.20;99.90
37702;DHT22;23548;51.196;6.838;2024-02-23T01:56:17;6.10;99.90
37702;DHT22;23548;51.196;6.838;2024-02-23T01:58:46;6.10;99.90
37702;DHT22;23548;51.196;6.838;2024-02-23T02:01:12;6.00;99.90
37702;DHT22;23548;51.196;6.838;2024-02-23T02:03:39;6.00;99.90
37702;DHT22;23548;51.196;6.838;2024-02-23T02:06:06;6.10;99.90
37702;DHT22;23548;51.196;6.838;2024-02-23T02:08:33;6.10;99.90
37702;DHT22;23548;51.196;6.838;2024-02-23T02:11:00;6.10;99.90
37702;DHT22;23548;51.196;6.838;2024-02-23T02:13:27;6.10;99.90
37702;DHT22;23548;51.196;6.838;2024-02-23T02:15:53;6.10;99.90
37702;DHT22;23548;51.196;6.838;2024-02-23T02:18:19;6.10;99.90
37702;DHT22;23548;51.196;6.838;2024-02-23T02:20:51;6.10;99.90
37702;DHT22;23548;51.196;6.838;2024-02-23T02:23:19;6.20;99.90
37702;DHT22;23548;51.196;6.838;2024-02-23T02:25:45;6.20;99.90
37702;DHT22;23548;51.196;6.838;2024-02-23T02:28:17;6.20;99.90
37702;DHT22;23548;51.196;6.838;2024-02-23T02:30:43;6.10;99.90
37702;DHT22;23548;51.196;6.838;2024-02-23T02:33:08;6.00;99.90
37702;DHT22;23548;51.196;6.838;2024-02-23T02:35:34;6.00;99.90
37702;DHT22;23548;51.196;6.838;2024-02-23T02:38:00;6.00;99.90
37702;DHT22;23548;51.196;6.838;2024-02-23T02:40:25;5.90;99.90
37702;DHT22;23548;51.196;6.838;2024-02-23T02:42:51;5.90;99.90
37702;DHT22;23548;51.196;6.838;2024-02-23T02:45:17;5.80;99.90
37702;DHT22;23548;51.196;6.838;2024-02-23T02:47:43;5.80;99.90
37702;DHT22;23548;51.196;6.838;2024-02-23T02:53:31;5.70;99.90
37702;DHT22;23548;51.196;6.838;2024-02-23T02:55:56;5.70;99.90
37702;DHT22;23548;51.196;6.838;2024-02-23T02:58:22;5.70;99.90
37702;DHT22;23548;51.196;6.838;2024-02-23T03:00:48;5.70;99.90
37702;DHT22;23548;51.196;6.838;2024-02-23T03:03:13;5.80;99.90
37702;DHT22;23548;51.196;6.838;2024-02-23T03:05:39;5.70;99.90
37702;DHT22;23548;51.196;6.838;2024-02-23T03:08:05;5.80;99.90
37702;DHT22;23548;51.196;6.838;2024-02-23T03:10:31;5.80;99.90
37702;DHT22;23548;51.196;6.838;2024-02-23T03:12:57;5.80;99.90
37702;DHT22;23548;51.196;6.838;2024-02-23T03:15:23;5.80;99.90
37702;DHT22;23548;51.196;6.838;2024-02-23T03:17:49;5.80;99.90
37702;DHT22;23548;51.196;6.838;2024-02-23T03:20:15;5.70;99.90
37702;DHT22;23548;51.196;6.838;2024-02-23T03:22:41;5.70;99.90
37702;DHT22;23548;51.196;6.838;2024-02-23T03:25:07;5.80;99.90
37702;DHT22;23548;51.196;6.838;2024-02-23T03:27:36;5.70;99.90
37702;DHT22;23548;51.196;6.838;2024-02-23T03:30:06;5.80;99.90
37702;DHT22;23548;51.196;6.838;2024-02-23T03:32:35;5.80;99.90
37702;DHT22;23548;51.196;6.838;2024-02-23T03:35:05;5.80;99.90
37702;DHT22;23548;51.196;6.838;2024-02-23T03:37:31;5.70;99.90
37702;DHT22;23548;51.196;6.838;2024-02-23T03:39:57;5.80;99.90
37702;DHT22;23548;51.196;6.838;2024-02-23T03:42:23;5.80;99.90
37702;DHT22;23548;51.196;6.838;2024-02-23T03:44:49;5.80;99.90
37702;DHT22;23548;51.196;6.838;2024-02-23T03:47:16;5.70;99.90
37702;DHT22;23548;51.196;6.838;2024-02-23T03:49:41;5.70;99.90
37702;DHT22;23548;51.196;6.838;2024-02-23T03:52:07;5.60;99.90
37702;DHT22;23548;51.196;6.838;2024-02-23T03:54:33;5.60;99.90
37702;DHT22;23548;51.196;6.838;2024-02-23T03:56:58;5.60;99.90
37702;DHT22;23548;51.196;6.838;2024-02-23T03:59:24;5.70;99.90
37702;DHT22;23548;51.196;6.838;2024-02-23T04:01:50;5.70;99.90
37702;DHT22;23548;51.196;6.838;2024-02-23T04:04:16;5.60;99.90
37702;DHT22;23548;51.196;6.838;2024-02-23T04:06:42;5.60;99.90
37702;DHT22;23548;51.196;6.838;2024-02-23T04:09:07;5.70;99.90
37702;DHT22;23548;51.196;6.838;2024-02-23T04:11:34;5.80;99.90
37702;DHT22;23548;51.196;6.838;2024-02-23T04:14:00;5.80;99.90
37702;DHT22;23548;51.196;6.838;2024-02-23T04:16:26;5.80;99.90
37702;DHT22;23548;51.196;6.838;2024-02-23T04:18:53;5.80;99.90
37702;DHT22;23548;51.196;6.838;2024-02-23T04:21:19;5.90;99.90
37702;DHT22;23548;51.196;6.838;2024-02-23T04:23:45;5.90;99.90
37702;DHT22;23548;51.196;6.838;2024-02-23T04:26:11;5.90;99.90
37702;DHT22;23548;51.196;6.838;2024-02-23T04:28:41;5.80;99.90
37702;DHT22;23548;51.196;6.838;2024-02-23T04:31:08;5.80;99.90
37702;DHT22;23548;51.196;6.838;2024-02-23T04:33:35;5.90;99.90
37702;DHT22;23548;51.196;6.838;2024-02-23T04:36:01;5.90;99.90
37702;DHT22;23548;51.196;6.838;2024-02-23T04:38:29;6.00;99.90
37702;DHT22;23548;51.196;6.838;2024-02-23T04:40:56;6.00;99.90
37702;DHT22;23548;51.196;6.838;2024-02-23T04:43:23;6.00;99.90
37702;DHT22;23548;51.196;6.838;2024-02-23T04:45:49;6.10;99.90
37702;DHT22;23548;51.196;6.838;2024-02-23T04:48:14;6.10;99.90
37702;DHT22;23548;51.196;6.838;2024-02-23T04:50:40;6.20;99.90
37702;DHT22;23548;51.196;6.838;2024-02-23T04:53:06;6.20;99.90
37702;DHT22;23548;51.196;6.838;2024-02-23T04:55:33;6.20;99.90
37702;DHT22;23548;51.196;6.838;2024-02-23T04:57:59;6.30;99.90
37702;DHT22;23548;51.196;6.838;2024-02-23T05:00:24;6.30;99.90
37702;DHT22;23548;51.196;6.838;2024-02-23T05:02:54;6.40;99.90
37702;DHT22;23548;51.196;6.838;2024-02-23T05:05:19;6.40;99.90
37702;DHT22;23548;51.196;6.838;2024-02-23T05:07:47;6.40;99.90
37702;DHT22;23548;51.196;6.838;2024-02-23T05:10:13;6.40;99.90
37702;DHT22;23548;51.196;6.838;2024-02-23T05:12:39;6.40;99.90
37702;DHT22;23548;51.196;6.838;2024-02-23T05:15:05;6.50;99.90
37702;DHT22;23548;51.196;6.838;2024-02-23T05:17:31;6.40;99.90
37702;DHT22;23548;51.196;6.838;2024-02-23T05:19:56;6.40;99.90
37702;DHT22;23548;51.196;6.838;2024-02-23T05:22:22;6.40;99.90
37702;DHT22;23548;51.196;6.838;2024-02-23T05:24:48;6.40;99.90
37702;DHT22;23548;51.196;6.838;2024-02-23T05:27:13;6.50;99.90
37702;DHT22;23548;51.196;6.838;2024-02-23T05:29:39;6.50;99.90
37702;DHT22;23548;51.196;6.838;2024-02-23T05:32:05;6.50;99.90
37702;DHT22;23548;51.196;6.838;2024-02-23T05:34:31;6.50;99.90
37702;DHT22;23548;51.196;6.838;2024-02-23T05:36:57;6.50;99.90
37702;DHT22;23548;51.196;6.838;2024-02-23T05:39:22;6.50;99.90
37702;DHT22;23548;51.196;6.838;2024-02-23T05:41:48;6.50;99.90
37702;DHT22;23548;51.196;6.838;2024-02-23T05:44:14;6.50;99.90
37702;DHT22;23548;51.196;6.838;2024-02-23T05:46:42;6.50;99.90
37702;DHT22;23548;51.196;6.838;2024-02-23T05:49:08;6.50;99.90
37702;DHT22;23548;51.196;6.838;2024-02-23T05:51:34;6.50;99.90
37702;DHT22;23548;51.196;6.838;2024-02-23T05:54:00;6.50;99.90
37702;DHT22;23548;51.196;6.838;2024-02-23T05:56:26;6.50;99.90
37702;DHT22;23548;51.196;6.838;2024-02-23T05:58:52;6.50;99.90
37702;DHT22;23548;51.196;6.838;2024-02-23T06:01:18;6.50;99.90
37702;DHT22;23548;51.196;6.838;2024-02-23T06:03:44;6.50;99.90
37702;DHT22;23548;51.196;6.838;2024-02-23T06:06:11;6.60;99.90
37702;DHT22;23548;51.196;6.838;2024-02-23T06:08:36;6.60;99.90
37702;DHT22;23548;51.196;6.838;2024-02-23T06:11:03;6.60;99.90
37702;DHT22;23548;51.196;6.838;2024-02-23T06:13:32;6.50;99.90
37702;DHT22;23548;51.196;6.838;2024-02-23T06:15:58;6.60;99.90
37702;DHT22;23548;51.196;6.838;2024-02-23T06:18:24;6.60;99.90
37702;DHT22;23548;51.196;6.838;2024-02-23T06:20:50;6.60;99.90
37702;DHT22;23548;51.196;6.838;2024-02-23T06:23:16;6.60;99.90
37702;DHT22;23548;51.196;6.838;2024-02-23T06:25:42;6.60;99.90
37702;DHT22;23548;51.196;6.838;2024-02-23T06:28:09;6.60;99.90
37702;DHT22;23548;51.196;6.838;2024-02-23T06:30:35;6.70;99.90
37702;DHT22;23548;51.196;6.838;2024-02-23T06:33:01;6.60;99.90
37702;DHT22;23548;51.196;6.838;2024-02-23T06:35:27;6.60;99.90
37702;DHT22;23548;51.196;6.838;2024-02-23T06:37:52;6.50;99.90
37702;DHT22;23548;51.196;6.838;2024-02-23T06:40:18;6.60;99.90
37702;DHT22;23548;51.196;6.838;2024-02-23T06:42:44;6.60;99.90
37702;DHT22;23548;51.196;6.838;2024-02-23T06:45:10;6.60;99.90
37702;DHT22;23548;51.196;6.838;2024-02-23T06:47:35;6.60;99.90
37702;DHT22;23548;51.196;6.838;2024-02-23T06:50:01;6.60;99.90
37702;DHT22;23548;51.196;6.838;2024-02-23T06:52:28;6.60;99.90
37702;DHT22;23548;51.196;6.838;2024-02-23T06:54:54;6.60;99.90
37702;DHT22;23548;51.196;6.838;2024-02-23T06:57:20;6.60;99.90
37702;DHT22;23548;51.196;6.838;2024-02-23T06:59:46;6.50;99.90
37702;DHT22;23548;51.196;6.838;2024-02-23T07:02:12;6.30;99.90
37702;DHT22;23548;51.196;6.838;2024-02-23T07:04:37;6.30;99.90
37702;DHT22;23548;51.196;6.838;2024-02-23T07:07:03;6.30;99.90
37702;DHT22;23548;51.196;6.838;2024-02-23T07:09:33;6.30;99.90
37702;DHT22;23548;51.196;6.838;2024-02-23T07:12:00;6.40;99.90
37702;DHT22;23548;51.196;6.838;2024-02-23T07:14:25;6.50;99.90
37702;DHT22;23548;51.196;6.838;2024-02-23T07:16:51;6.50;99.90
37702;DHT22;23548;51.196;6.838;2024-02-23T07:19:19;6.60;99.90
37702;DHT22;23548;51.196;6.838;2024-02-23T07:21:48;6.60;99.90
37702;DHT22;23548;51.196;6.838;2024-02-23T07:24:14;6.70;99.90
37702;DHT22;23548;51.196;6.838;2024-02-23T07:26:40;6.90;99.90
37702;DHT22;23548;51.196;6.838;2024-02-23T07:29:06;6.80;99.90
37702;DHT22;23548;51.196;6.838;2024-02-23T07:31:32;6.80;99.90
37702;DHT22;23548;51.196;6.838;2024-02-23T07:33:58;6.80;99.90
37702;DHT22;23548;51.196;6.838;2024-02-23T07:36:23;6.90;99.90
37702;DHT22;23548;51.196;6.838;2024-02-23T07:38:49;7.20;99.90
37702;DHT22;23548;51.196;6.838;2024-02-23T07:41:15;7.40;99.90
37702;DHT22;23548;51.196;6.838;2024-02-23T07:43:43;7.40;99.90
37702;DHT22;23548;51.196;6.838;2024-02-23T07:46:09;7.60;99.90
37702;DHT22;23548;51.196;6.838;2024-02-23T07:48:35;7.80;99.90
37702;DHT22;23548;51.196;6.838;2024-02-23T07:51:02;7.80;99.90
37702;DHT22;23548;51.196;6.838;2024-02-23T07:53:29;7.70;99.90
37702;DHT22;23548;51.196;6.838;2024-02-23T07:55:55;7.40;99.90
37702;DHT22;23548;51.196;6.838;2024-02-23T07:58:21;7.50;99.90
37702;DHT22;23548;51.196;6.838;2024-02-23T08:00:47;7.50;99.90
37702;DHT22;23548;51.196;6.838;2024-02-23T08:03:12;7.40;99.90
37702;DHT22;23548;51.196;6.838;2024-02-23T08:05:38;7.40;99.90
37702;DHT22;23548;51.196;6.838;2024-02-23T08:08:04;7.50;99.90
37702;DHT22;23548;51.196;6.838;2024-02-23T08:10:32;7.40;99.90
37702;DHT22;23548;51.196;6.838;2024-02-23T08:12:58;7.50;99.90
37702;DHT22;23548;51.196;6.838;2024-02-23T08:15:24;7.50;99.90
37702;DHT22;23548;51.196;6.838;2024-02-23T08:17:50;7.50;99.90
37702;DHT22;23548;51.196;6.838;2024-02-23T08:20:15;7.40;99.90
37702;DHT22;23548;51.196;6.838;2024-02-23T08:22:41;7.30;99.90
37702;DHT22;23548;51.196;6.838;2024-02-23T08:25:07;7.20;99.90
37702;DHT22;23548;51.196;6.838;2024-02-23T08:27:33;7.30;99.90
37702;DHT22;23548;51.196;6.838;2024-02-23T08:29:59;7.50;99.90
37702;DHT22;23548;51.196;6.838;2024-02-23T08:32:25;7.60;99.90
37702;DHT22;23548;51.196;6.838;2024-02-23T08:34:50;7.80;99.90
37702;DHT22;23548;51.196;6.838;2024-02-23T08:37:18;7.90;99.90
37702;DHT22;23548;51.196;6.838;2024-02-23T08:39:44;8.10;99.90
37702;DHT22;23548;51.196;6.838;2024-02-23T08:42:10;8.10;99.90
37702;DHT22;23548;51.196;6.838;2024-02-23T08:44:36;7.90;99.90
37702;DHT22;23548;51.196;6.838;2024-02-23T08:47:04;7.80;99.90
37702;DHT22;23548;51.196;6.838;2024-02-23T08:49:30;7.90;99.90
37702;DHT22;23548;51.196;6.838;2024-02-23T08:51:56;8.00;99.90
37702;DHT22;23548;51.196;6.838;2024-02-23T08:54:24;8.00;99.90
37702;DHT22;23548;51.196;6.838;2024-02-23T08:56:49;8.30;99.90
37702;DHT22;23548;51.196;6.838;2024-02-23T08:59:15;8.40;99.90
37702;DHT22;23548;51.196;6.838;2024-02-23T09:01:41;8.30;99.90
37702;DHT22;23548;51.196;6.838;2024-02-23T09:04:06;8.20;99.90
37702;DHT22;23548;51.196;6.838;2024-02-23T09:06:33;8.20;99.90
37702;DHT22;23548;51.196;6.838;2024-02-23T09:08:59;8.30;99.90
37702;DHT22;23548;51.196;6.838;2024-02-23T09:11:24;8.10;99.90
37702;DHT22;23548;51.196;6.838;2024-02-23T09:13:50;8.00;99.90
37702;DHT22;23548;51.196;6.838;2024-02-23T09:16:16;8.00;99.90
37702;DHT22;23548;51.196;6.838;2024-02-23T09:18:41;8.00;99.90
37702;DHT22;23548;51.196;6.838;2024-02-23T09:21:07;8.10;99.90
37702;DHT22;23548;51.196;6.838;2024-02-23T09:23:33;8.10;99.90
37702;DHT22;23548;51.196;6.838;2024-02-23T09:25:59;8.30;99.90
37702;DHT22;23548;51.196;6.838;2024-02-23T09:28:25;8.30;99.90
37702;DHT22;23548;51.196;6.838;2024-02-23T09:30:50;8.30;99.90
37702;DHT22;23548;51.196;6.838;2024-02-23T09:33:16;8.50;99.90
37702;DHT22;23548;51.196;6.838;2024-02-23T09:35:42;8.40;99.90
37702;DHT22;23548;51.196;6.838;2024-02-23T09:38:08;8.50;99.90
37702;DHT22;23548;51.196;6.838;2024-02-23T09:40:33;8.70;99.90
37702;DHT22;23548;51.196;6.838;2024-02-23T09:42:59;8.70;99.90
37702;DHT22;23548;51.196;6.838;2024-02-23T09:45:25;8.60;99.60
37702;DHT22;23548;51.196;6.838;2024-02-23T09:47:57;8.60;99.90
37702;DHT22;23548;51.196;6.838;2024-02-23T09:50:24;8.50;99.90
37702;DHT22;23548;51.196;6.838;2024-02-23T09:52:50;8.60;99.90
37702;DHT22;23548;51.196;6.838;2024-02-23T09:55:21;8.70;99.90
37702;DHT22;23548;51.196;6.838;2024-02-23T09:57:49;8.70;99.90
37702;DHT22;23548;51.196;6.838;2024-02-23T10:00:17;8.70;99.10
37702;DHT22;23548;51.196;6.838;2024-02-23T10:02:43;8.70;99.20
37702;DHT22;23548;51.196;6.838;2024-02-23T10:05:10;8.80;99.30
37702;DHT22;23548;51.196;6.838;2024-02-23T10:07:37;8.90;98.20
37702;DHT22;23548;51.196;6.838;2024-02-23T10:10:07;8.80;97.90
37702;DHT22;23548;51.196;6.838;2024-02-23T10:12:33;8.80;98.20
37702;DHT22;23548;51.196;6.838;2024-02-23T10:14:59;9.00;98.00
37702;DHT22;23548;51.196;6.838;2024-02-23T10:17:32;9.10;97.90
37702;DHT22;23548;51.196;6.838;2024-02-23T10:19:59;9.20;97.60
37702;DHT22;23548;51.196;6.838;2024-02-23T10:22:25;9.20;97.60
37702;DHT22;23548;51.196;6.838;2024-02-23T10:24:51;9.10;97.60
37702;DHT22;23548;51.196;6.838;2024-02-23T10:27:17;9.30;97.00
37702;DHT22;23548;51.196;6.838;2024-02-23T10:29:43;9.60;96.80
37702;DHT22;23548;51.196;6.838;2024-02-23T10:32:14;9.50;95.70
37702;DHT22;23548;51.196;6.838;2024-02-23T10:34:42;9.50;95.70
37702;DHT22;23548;51.196;6.838;2024-02-23T10:37:08;9.40;95.70
37702;DHT22;23548;51.196;6.838;2024-02-23T10:39:36;9.10;95.80
37702;DHT22;23548;51.196;6.838;2024-02-23T10:42:08;9.20;96.10
37702;DHT22;23548;51.196;6.838;2024-02-23T10:44:34;9.20;95.90
37702;DHT22;23548;51.196;6.838;2024-02-23T10:47:01;9.10;95.50
37702;DHT22;23548;51.196;6.838;2024-02-23T10:49:28;9.00;96.00
37702;DHT22;23548;51.196;6.838;2024-02-23T10:51:55;9.10;96.00
37702;DHT22;23548;51.196;6.838;2024-02-23T10:54:22;9.10;96.10
37702;DHT22;23548;51.196;6.838;2024-02-23T10:56:50;9.20;96.10
37702;DHT22;23548;51.196;6.838;2024-02-23T10:59:17;9.20;95.40
37702;DHT22;23548;51.196;6.838;2024-02-23T11:01:51;9.20;95.00
37702;DHT22;23548;51.196;6.838;2024-02-23T11:04:19;9.10;95.30
37702;DHT22;23548;51.196;6.838;2024-02-23T11:06:51;9.10;95.40
37702;DHT22;23548;51.196;6.838;2024-02-23T11:09:17;9.10;95.90
37702;DHT22;23548;51.196;6.838;2024-02-23T11:11:58;9.10;96.00
37702;DHT22;23548;51.196;6.838;2024-02-23T11:14:35;9.00;96.40
37702;DHT22;23548;51.196;6.838;2024-02-23T11:17:02;9.00;96.00
37702;DHT22;23548;51.196;6.838;2024-02-23T11:19:39;8.90;95.70
37702;DHT22;23548;51.196;6.838;2024-02-23T11:22:09;9.00;95.50
37702;DHT22;23548;51.196;6.838;2024-02-23T11:24:35;9.00;95.70
37702;DHT22;23548;51.196;6.838;2024-02-23T11:27:13;9.00;95.60
37702;DHT22;23548;51.196;6.838;2024-02-23T11:29:39;9.00;95.40
37702;DHT22;23548;51.196;6.838;2024-02-23T11:32:13;9.20;95.50
37702;DHT22;23548;51.196;6.838;2024-02-23T11:34:39;9.50;95.60
37702;DHT22;23548;51.196;6.838;2024-02-23T11:37:11;9.60;94.40
37702;DHT22;23548;51.196;6.838;2024-02-23T11:39:38;9.60;94.40
37702;DHT22;23548;51.196;6.838;2024-02-23T11:42:07;9.60;94.60
37702;DHT22;23548;51.196;6.838;2024-02-23T11:44:33;9.50;94.90
37702;DHT22;23548;51.196;6.838;2024-02-23T11:46:59;9.50;95.10
37702;DHT22;23548;51.196;6.838;2024-02-23T11:49:31;9.50;95.00
37702;DHT22;23548;51.196;6.838;2024-02-23T11:51:57;9.40;95.10
37702;DHT22;23548;51.196;6.838;2024-02-23T11:54:23;9.50;95.10
37702;DHT22;23548;51.196;6.838;2024-02-23T11:56:49;9.50;94.70
37702;DHT22;23548;51.196;6.838;2024-02-23T11:59:21;9.40;93.80
37702;DHT22;23548;51.196;6.838;2024-02-23T12:01:48;9.50;94.40
37702;DHT22;23548;51.196;6.838;2024-02-23T12:04:14;9.40;94.10
37702;DHT22;23548;51.196;6.838;2024-02-23T12:06:42;9.40;94.70
37702;DHT22;23548;51.196;6.838;2024-02-23T12:09:09;9.50;94.90
37702;DHT22;23548;51.196;6.838;2024-02-23T12:11:35;9.60;94.50
37702;DHT22;23548;51.196;6.838;2024-02-23T12:14:01;9.80;94.00
37702;DHT22;23548;51.196;6.838;2024-02-23T12:16:34;10.00;94.10
37702;DHT22;23548;51.196;6.838;2024-02-23T12:19:03;9.90;93.90
37702;DHT22;23548;51.196;6.838;2024-02-23T12:21:29;9.70;94.10
37702;DHT22;23548;51.196;6.838;2024-02-23T12:23:55;9.90;93.60
37702;DHT22;23548;51.196;6.838;2024-02-23T12:26:21;9.90;94.20
37702;DHT22;23548;51.196;6.838;2024-02-23T12:28:47;9.90;93.30
37702;DHT22;23548;51.196;6.838;2024-02-23T12:31:13;10.10;92.80
37702;DHT22;23548;51.196;6.838;2024-02-23T12:33:40;10.30;92.50
37702;DHT22;23548;51.196;6.838;2024-02-23T12:36:07;10.20;92.40
37702;DHT22;23548;51.196;6.838;2024-02-23T12:38:35;10.20;92.50
37702;DHT22;23548;51.196;6.838;2024-02-23T12:41:01;10.10;93.00
37702;DHT22;23548;51.196;6.838;2024-02-23T12:43:28;10.30;93.00
37702;DHT22;23548;51.196;6.838;2024-02-23T12:45:55;10.20;92.40
37702;DHT22;23548;51.196;6.838;2024-02-23T12:48:22;10.30;92.50
37702;DHT22;23548;51.196;6.838;2024-02-23T12:50:48;10.20;92.30
37702;DHT22;23548;51.196;6.838;2024-02-23T12:53:36;10.10;93.40
37702;DHT22;23548;51.196;6.838;2024-02-23T12:56:10;10.30;92.80
37702;DHT22;23548;51.196;6.838;2024-02-23T12:58:38;10.50;92.40
37702;DHT22;23548;51.196;6.838;2024-02-23T13:01:04;10.20;91.80
37702;DHT22;23548;51.196;6.838;2024-02-23T13:03:32;10.30;92.60
37702;DHT22;23548;51.196;6.838;2024-02-23T13:05:58;10.40;93.40
37702;DHT22;23548;51.196;6.838;2024-02-23T13:08:24;10.80;93.10
37702;DHT22;23548;51.196;6.838;2024-02-23T13:10:52;11.10;92.10
37702;DHT22;23548;51.196;6.838;2024-02-23T13:13:18;11.20;91.30
37702;DHT22;23548;51.196;6.838;2024-02-23T13:15:45;11.20;90.60
37702;DHT22;23548;51.196;6.838;2024-02-23T13:18:12;10.80;90.50
37702;DHT22;23548;51.196;6.838;2024-02-23T13:20:38;10.80;90.70
37702;DHT22;23548;51.196;6.838;2024-02-23T13:23:05;11.10;90.40
37702;DHT22;23548;51.196;6.838;2024-02-23T13:25:34;10.80;90.10
37702;DHT22;23548;51.196;6.838;2024-02-23T13:28:00;10.70;90.30
37702;DHT22;23548;51.196;6.838;2024-02-23T13:30:26;10.90;90.30
37702;DHT22;23548;51.196;6.838;2024-02-23T13:32:52;10.90;89.40
37702;DHT22;23548;51.196;6.838;2024-02-23T13:35:18;10.60;90.00
37702;DHT22;23548;51.196;6.838;2024-02-23T13:37:44;10.50;90.40
37702;DHT22;23548;51.196;6.838;2024-02-23T13:40:10;10.70;90.50
37702;DHT22;23548;51.196;6.838;2024-02-23T13:42:37;10.70;90.40
37702;DHT22;23548;51.196;6.838;2024-02-23T13:45:07;10.80;90.10
37702;DHT22;23548;51.196;6.838;2024-02-23T13:47:33;10.80;91.30
37702;DHT22;23548;51.196;6.838;2024-02-23T13:50:00;10.90;89.90
37702;DHT22;23548;51.196;6.838;2024-02-23T13:52:26;11.10;88.40
37702;DHT22;23548;51.196;6.838;2024-02-23T13:54:51;11.00;88.00
37702;DHT22;23548;51.196;6.838;2024-02-23T13:57:17;11.20;87.50
37702;DHT22;23548;51.196;6.838;2024-02-23T13:59:43;11.00;87.00
37702;DHT22;23548;51.196;6.838;2024-02-23T14:02:09;10.90;87.30
37702;DHT22;23548;51.196;6.838;2024-02-23T14:04:35;10.90;86.80
37702;DHT22;23548;51.196;6.838;2024-02-23T14:07:01;10.80;87.20
37702;DHT22;23548;51.196;6.838;2024-02-23T14:09:26;10.60;87.60
37702;DHT22;23548;51.196;6.838;2024-02-23T14:11:52;10.50;87.80
37702;DHT22;23548;51.196;6.838;2024-02-23T14:14:19;10.60;88.10
37702;DHT22;23548;51.196;6.838;2024-02-23T14:16:45;10.70;87.80
37702;DHT22;23548;51.196;6.838;2024-02-23T14:19:11;10.60;88.30
37702;DHT22;23548;51.196;6.838;2024-02-23T14:21:37;10.90;87.70
37702;DHT22;23548;51.196;6.838;2024-02-23T14:24:03;10.80;88.00
37702;DHT22;23548;51.196;6.838;2024-02-23T14:26:29;10.70;88.60
37702;DHT22;23548;51.196;6.838;2024-02-23T14:28:55;10.70;88.90
37702;DHT22;23548;51.196;6.838;2024-02-23T14:31:21;10.60;88.90
37702;DHT22;23548;51.196;6.838;2024-02-23T14:33:46;10.50;88.30
37702;DHT22;23548;51.196;6.838;2024-02-23T14:36:16;10.30;87.60
37702;DHT22;23548;51.196;6.838;2024-02-23T14:38:42;10.20;87.80
37702;DHT22;23548;51.196;6.838;2024-02-23T14:41:08;10.30;88.40
37702;DHT22;23548;51.196;6.838;2024-02-23T14:43:35;10.70;88.30
37702;DHT22;23548;51.196;6.838;2024-02-23T14:46:02;11.50;85.10
37702;DHT22;23548;51.196;6.838;2024-02-23T14:48:28;12.00;83.20
37702;DHT22;23548;51.196;6.838;2024-02-23T14:50:53;11.50;83.50
37702;DHT22;23548;51.196;6.838;2024-02-23T14:53:19;11.00;84.70
37702;DHT22;23548;51.196;6.838;2024-02-23T14:55:45;10.90;86.10
37702;DHT22;23548;51.196;6.838;2024-02-23T14:58:12;10.90;86.90
37702;DHT22;23548;51.196;6.838;2024-02-23T15:00:37;10.80;86.30
37702;DHT22;23548;51.196;6.838;2024-02-23T15:03:04;10.70;87.60
37702;DHT22;23548;51.196;6.838;2024-02-23T15:05:30;10.60;87.70
37702;DHT22;23548;51.196;6.838;2024-02-23T15:07:56;10.50;89.00
37702;DHT22;23548;51.196;6.838;2024-02-23T15:10:22;10.20;92.20
37702;DHT22;23548;51.196;6.838;2024-02-23T15:12:47;10.10;94.30
37702;DHT22;23548;51.196;6.838;2024-02-23T15:15:13;10.10;97.90
37702;DHT22;23548;51.196;6.838;2024-02-23T15:17:39;9.60;98.20
37702;DHT22;23548;51.196;6.838;2024-02-23T15:20:08;9.50;98.70
37702;DHT22;23548;51.196;6.838;2024-02-23T15:22:34;9.40;99.20
37702;DHT22;23548;51.196;6.838;2024-02-23T15:25:00;9.30;99.90
37702;DHT22;23548;51.196;6.838;2024-02-23T15:27:25;9.60;99.90
37702;DHT22;23548;51.196;6.838;2024-02-23T15:29:51;9.90;99.90
37702;DHT22;23548;51.196;6.838;2024-02-23T15:32:17;9.80;99.90
37702;DHT22;23548;51.196;6.838;2024-02-23T15:34:43;9.80;99.90
37702;DHT22;23548;51.196;6.838;2024-02-23T15:37:10;9.80;99.90
37702;DHT22;23548;51.196;6.838;2024-02-23T15:39:36;9.60;99.90
37702;DHT22;23548;51.196;6.838;2024-02-23T15:42:02;9.40;99.90